Flight Track Log - Related Links

Times and Time Zones

All times are in EDT time to prevent confusion due to time zone crossing. See the N915ED flight status page for this flight to view local times or setup timezone preferences in your user account.

Time Position Orientation Groundspeed Altitude Reporting Facility
EDT Latitude Longitude Course Direction KTS MPH feet Rate Location/Type
Sat 11:15:00 AM 33.8500 -79.0475 270° West  Level FlightAware Approximate
Sat 11:15:46 AM 33.8567 -79.0339 282° West 141 162 4,900  Level Jacksonville Center
Sat 11:16:00 AM 33.8576 -79.1030 280° West  Level FlightAware Approximate
Sat 11:16:46 AM 33.8644 -79.0811 281° West 146 168 5,500  Level Jacksonville Center
Sat 11:17:00 AM 33.8655 -79.1584 280° West  Level FlightAware Approximate
Sat 11:17:46 AM 33.8700 -79.1283 278° West 146 168 6,200  Level Jacksonville Center
Sat 11:18:00 AM 33.8667 -79.2145 270° West  Level FlightAware Approximate
Sat 11:18:46 AM 33.8756 -79.1756 278° West 141 162 6,800  Level Jacksonville Center
Sat 11:19:00 AM 33.8763 -79.2694 282° West  Level FlightAware Approximate
Sat 11:19:46 AM 33.8811 -79.2203 279° West 141 162 7,400  Level Jacksonville Center
Sat 11:20:00 AM 33.8863 -79.3244 282° West  Level FlightAware Approximate
Sat 11:20:46 AM 33.8886 -79.2700 280° West 141 162 8,000  Level Jacksonville Center
Sat 11:21:00 AM 33.8963 -79.3793 282° West  Level FlightAware Approximate
Sat 11:21:46 AM 33.8942 -79.3175 278° West 141 162 8,600  Level Jacksonville Center
Sat 11:22:46 AM 33.8997 -79.3647 278° West 141 162 9,200 650 Climbing Jacksonville Center
Sat 11:23:46 AM 33.9072 -79.4119 281° West 141 162 9,900 700 Climbing Jacksonville Center
Sat 11:24:46 AM 33.9192 -79.4592 287° West 141 162 10,600 650 Climbing Jacksonville Center
Sat 11:25:46 AM 33.9244 -79.5064 278° West 141 162 11,200 600 Climbing Jacksonville Center
Sat 11:26:46 AM 33.9322 -79.5561 281° West 141 162 11,800 550 Climbing Jacksonville Center
Sat 11:27:46 AM 33.9375 -79.6058 277° West 141 162 12,300 550 Climbing Jacksonville Center
Sat 11:28:46 AM 33.9450 -79.6558 280° West 141 162 12,900 600 Climbing Jacksonville Center
Sat 11:29:46 AM 33.9506 -79.7031 278° West 147 169 13,500 550 Climbing Jacksonville Center
Sat 11:30:46 AM 33.9581 -79.7553 280° West 147 169 14,000 550 Climbing Jacksonville Center
Sat 11:31:46 AM 33.9636 -79.8053 278° West 147 169 14,600 650 Climbing Jacksonville Center
Sat 11:32:46 AM 33.9731 -79.8525 284° West 152 175 15,300 600 Climbing Jacksonville Center
Sat 11:33:46 AM 33.9783 -79.9050 277° West 157 181 15,800 500 Climbing Jacksonville Center
Sat 11:34:46 AM 33.9858 -79.9522 281° West 157 181 16,300 450 Climbing Jacksonville Center
Sat 11:35:46 AM 33.9889 -79.9997 274° West 157 181 16,700 450 Climbing Jacksonville Center
Sat 11:36:46 AM 33.9964 -80.0544 279° West 157 181 17,200 550 Climbing Jacksonville Center
Sat 11:37:46 AM 34.0039 -80.1044 280° West 157 181 17,800 400 Climbing Jacksonville Center
Sat 11:38:46 AM 34.0111 -80.1569 279° West 157 181 18,000 100 Climbing Jacksonville Center
Sat 11:39:46 AM 34.0189 -80.2167 279° West 162 186 18,000  Level Jacksonville Center
Sat 11:40:46 AM 34.0261 -80.2742 279° West 168 193 18,000  Level Jacksonville Center
Sat 11:41:46 AM 34.0317 -80.3367 276° West 182 209 18,000  Level Jacksonville Center
Sat 11:42:46 AM 34.0411 -80.3939 281° West 182 209 18,000  Level Jacksonville Center
Sat 11:43:46 AM 34.0486 -80.4539 279° West 182 209 18,000  Level Jacksonville Center
Sat 11:44:46 AM 34.0561 -80.5114 279° West 182 209 18,000  Level Jacksonville Center
Sat 11:45:46 AM 34.0614 -80.5714 276° West 182 209 18,000 250 Level Jacksonville Center
Sat 11:46:46 AM 34.0706 -80.6264 281° West 182 209 18,500 550 Climbing Jacksonville Center
Sat 11:47:46 AM 34.0758 -80.6789 277° West 177 204 19,100 500 Climbing Jacksonville Center
Sat 11:48:46 AM 34.0828 -80.7261 280° West 166 191 19,500 450 Climbing Jacksonville Center
Sat 11:49:46 AM 34.0900 -80.7814 279° West 161 185 20,000 250 Climbing Jacksonville Center
Sat 11:50:46 AM 34.0950 -80.8364 276° West 161 185 20,000  Level Jacksonville Center
Sat 11:51:46 AM 34.1044 -80.8939 281° West 166 191 20,000  Level Jacksonville Center
Sat 11:53:54 AM 34.1200 -81.0128 279° West 164 189 20,000  Level Atlanta Center
Sat 11:54:54 AM 34.1236 -81.0703 274° West 169 194 20,000  Level Atlanta Center
Sat 11:55:54 AM 34.1314 -81.1278 279° West 180 207 20,000  Level Atlanta Center
Sat 11:56:54 AM 34.1369 -81.1878 276° West 180 207 20,000  Level Atlanta Center
Sat 11:57:54 AM 34.1464 -81.2453 281° West 175 201 20,000  Level Atlanta Center
Sat 11:58:54 AM 34.1539 -81.3000 279° West 175 201 20,000  Level Atlanta Center
Sat 11:59:54 AM 34.1572 -81.3528 274° West 170 196 20,000  Level Atlanta Center
Sat 12:00:54 PM 34.1606 -81.4028 275° West 170 196 20,000  Level Atlanta Center
Sat 12:01:54 PM 34.1553 -81.4533 263° West 165 190 20,000  Level Atlanta Center
Sat 12:02:54 PM 34.1439 -81.5089 256° West 165 190 20,000  Level Atlanta Center
Sat 12:03:54 PM 34.1386 -81.5642 263° West 165 190 20,000  Level Atlanta Center
Sat 12:04:54 PM 34.1294 -81.6197 259° West 165 190 20,000  Level Atlanta Center
Sat 12:05:54 PM 34.1242 -81.6750 263° West 165 190 20,000  Level Atlanta Center
Sat 12:06:54 PM 34.1169 -81.7303 261° West 165 190 20,000  Level Atlanta Center
Sat 12:07:54 PM 34.1097 -81.7858 261° West 165 190 20,000  Level Atlanta Center
Sat 12:08:54 PM 34.1022 -81.8411 261° West 165 190 20,000  Level Atlanta Center
Sat 12:09:54 PM 34.1011 -81.8964 269° West 165 190 20,000  Level Atlanta Center
Sat 12:10:54 PM 34.1042 -81.9539 274° West 165 190 20,000  Level Atlanta Center
Sat 12:11:54 PM 34.1197 -82.0089 289° West 165 190 20,000  Level Atlanta Center
Sat 12:12:54 PM 34.1478 -82.0583 304° West 171 197 20,000  Level Atlanta Center
Sat 12:13:54 PM 34.1922 -82.1000 322° Northwest 183 211 20,000  Level Atlanta Center
Sat 12:14:54 PM 34.2344 -82.1392 323° Northwest 195 224 20,000  Level Atlanta Center
Sat 12:15:54 PM 34.2811 -82.1758 327° Northwest 200 230 20,000  Level Atlanta Center
Sat 12:16:54 PM 34.3358 -82.2125 331° Northwest 200 230 20,000  Level Atlanta Center
Sat 12:17:54 PM 34.3842 -82.2442 332° Northwest 205 236 20,000  Level Atlanta Center
Sat 12:18:54 PM 34.4347 -82.2758 333° Northwest 205 236 20,000  Level Atlanta Center
Sat 12:19:54 PM 34.4833 -82.3075 332° Northwest 205 236 20,000  Level Atlanta Center
Sat 12:20:54 PM 34.5297 -82.3394 330° Northwest 205 236 20,000  Level Atlanta Center
Sat 12:21:54 PM 34.5803 -82.3736 331° Northwest 205 236 20,000  Level Atlanta Center
Sat 12:22:54 PM 34.6264 -82.4031 332° Northwest 205 236 20,000  Level Atlanta Center
Sat 12:23:54 PM 34.6769 -82.4350 333° Northwest 205 236 20,000  Level Atlanta Center
Sat 12:24:54 PM 34.7256 -82.4667 332° Northwest 205 236 20,000  Level Atlanta Center
Sat 12:25:54 PM 34.7739 -82.4986 332° Northwest 205 236 20,000  Level Atlanta Center
Sat 12:26:54 PM 34.8203 -82.5308 330° Northwest 205 236 20,000  Level Atlanta Center
Sat 12:27:54 PM 34.8686 -82.5628 332° Northwest 205 236 20,000  Level Atlanta Center
Sat 12:28:54 PM 34.9169 -82.5925 333° Northwest 200 230 20,000  Level Atlanta Center
Sat 12:29:54 PM 34.9631 -82.6244 330° Northwest 200 230 20,000  Level Atlanta Center
Sat 12:30:54 PM 35.0094 -82.6592 328° Northwest 200 230 20,000  Level Atlanta Center
Sat 12:31:54 PM 35.0578 -82.6889 333° Northwest 195 224 20,000  Level Atlanta Center
Sat 12:32:54 PM 35.1019 -82.7186 331° Northwest 189 217 20,000  Level Atlanta Center
Sat 12:33:54 PM 35.1461 -82.7458 333° Northwest 189 217 20,000  Level Atlanta Center
Sat 12:34:54 PM 35.1903 -82.7756 331° Northwest 184 212 20,000  Level Atlanta Center
Sat 12:35:54 PM 35.2344 -82.8131 325° Northwest 189 217 20,000  Level Atlanta Center
Sat 12:36:54 PM 35.2825 -82.8378 337° Northwest 189 217 20,000  Level Atlanta Center
Sat 12:37:54 PM 35.3267 -82.8653 333° Northwest 183 211 20,000 -100 Level Atlanta Center
Sat 12:38:54 PM 35.3708 -82.8953 331° Northwest 183 211 19,800 -350 Descending Atlanta Center
Sat 12:39:54 PM 35.4169 -82.9275 330° Northwest 183 211 19,300 -550 Descending Atlanta Center
Sat 12:40:54 PM 35.4631 -82.9603 330° Northwest 183 211 18,700 -600 Descending Atlanta Center
Sat 12:41:54 PM 35.5114 -82.9900 333° Northwest 189 217 18,100 -350 Descending Atlanta Center
Sat 12:42:54 PM 35.5575 -83.0203 332° Northwest 189 217 18,000 -50 Descending Atlanta Center
Sat 12:43:54 PM 35.5994 -83.0503 330° Northwest 183 211 18,000  Level Atlanta Center
Sat 12:44:54 PM 35.6436 -83.0778 333° Northwest 178 205 18,000  Level Atlanta Center
Sat 12:45:54 PM 35.6856 -83.1106 328° Northwest 178 205 18,000  Level Atlanta Center
Sat 12:46:54 PM 35.7294 -83.1383 333° Northwest 178 205 18,000  Level Atlanta Center
Sat 12:47:54 PM 35.7694 -83.1658 331° Northwest 173 199 18,000  Level Atlanta Center
Sat 12:48:54 PM 35.8114 -83.1964 329° Northwest 173 199 18,000  Level Atlanta Center
Sat 12:49:54 PM 35.8533 -83.2239 332° Northwest 173 199 18,000  Level Atlanta Center
Sat 12:50:54 PM 35.8931 -83.2519 330° Northwest 167 192 18,000 -50 Level Atlanta Center
Sat 12:51:54 PM 35.9350 -83.2822 330° Northwest 167 192 17,900 -350 Descending Atlanta Center
Sat 12:52:54 PM 35.9853 -83.3150 332° Northwest 172 198 17,300 -650 Descending Atlanta Center
Sat 12:53:54 PM 36.0397 -83.3506 332° Northwest 187 215 16,600 -650 Descending Atlanta Center
Sat 12:54:54 PM 36.0878 -83.3861 329° Northwest 201 231 16,000 -650 Descending Atlanta Center
Sat 12:55:54 PM 36.1403 -83.4192 333° Northwest 206 237 15,300 -750 Descending Atlanta Center
Sat 12:56:54 PM 36.1903 -83.4547 330° Northwest 206 237 14,500 -750 Descending Atlanta Center
Sat 12:57:54 PM 36.2406 -83.4878 332° Northwest 206 237 13,800 -700 Descending Atlanta Center
Sat 12:58:54 PM 36.2908 -83.5236 330° Northwest 206 237 13,100 -750 Descending Atlanta Center
Sat 12:59:54 PM 36.3431 -83.5592 331° Northwest 211 243 12,300 -729 Descending Atlanta Center
Sat 01:01:14 PM 36.4100 -83.6042 332° Northwest 212 244 11,400 -676 Descending Indianapolis Center
Sat 01:02:16 PM 36.4603 -83.6383 331° Northwest 210 242 10,700 -683 Descending Indianapolis Center
Sat 01:03:17 PM 36.5106 -83.6739 330° Northwest 208 239 10,000 -732 Descending Indianapolis Center
Sat 01:04:19 PM 36.5619 -83.7097 331° Northwest 206 237 9,200 -726 Descending Indianapolis Center
Sat 01:05:21 PM 36.6086 -83.7422 331° Northwest 198 228 8,500 -677 Descending Indianapolis Center
Sat 01:06:23 PM 36.6511 -83.7719 331° Northwest 183 211 7,800 -629 Descending Indianapolis Center
Sat 01:07:25 PM 36.7022 -83.8078 331° Northwest 180 207 7,200 -585 Descending Indianapolis Center
Sat 01:08:26 PM 36.7500 -83.8411 331° Northwest 190 219 6,600 -537 Descending Indianapolis Center
Sat 01:09:28 PM 36.7964 -83.8739 331° Northwest 191 220 6,100 -532 Descending Indianapolis Center
Sat 01:10:30 PM 36.8422 -83.9061 331° Northwest 189 217 5,500 -484 Descending Indianapolis Center
Sat 01:11:32 PM 36.8858 -83.9361 331° Northwest 182 209 5,100 -387 Descending Indianapolis Center

Login

Don't have an account? Register now (free) for customized features, flight alerts, and more!